Time;durP1;ratioP1;P1;durP2;ratioP2;P2;SDS_P1;SDS_P2;PMS_P1;PMS_P2;Temp;Humidity;BMP_temperature;BMP_pressure;BME280_temperature;BME280_humidity;BME280_pressure;Samples;Min_cycle;Max_cycle;Signal;HPM_P1;HPM_P2
2022/09/10 00:01:35;;;;;;;2.07;1.27;;;14.00;99.90;;;;;;5005071;28;20503;-71
2022/09/10 00:04:04;;;;;;;1.73;1.20;;;14.00;99.90;;;;;;4998654;28;20460;-71
2022/09/10 00:06:34;;;;;;;2.60;1.23;;;13.90;99.90;;;;;;5009327;28;20471;-71
2022/09/10 00:09:01;;;;;;;2.30;1.40;;;14.00;99.90;;;;;;5006522;28;20479;-71
2022/09/10 00:11:30;;;;;;;5.13;2.13;;;14.00;99.90;;;;;;5005365;28;20520;-71
2022/09/10 00:13:58;;;;;;;2.00;1.40;;;13.90;99.90;;;;;;5006458;28;20289;-71
2022/09/10 00:16:26;;;;;;;1.53;1.27;;;13.90;99.90;;;;;;5007548;28;20878;-71
2022/09/10 00:18:53;;;;;;;2.13;1.83;;;13.90;99.90;;;;;;5006248;28;21350;-71
2022/09/10 00:21:21;;;;;;;3.57;1.80;;;13.90;99.90;;;;;;5008064;28;20462;-71
2022/09/10 00:23:48;;;;;;;3.30;1.73;;;13.90;99.90;;;;;;5007142;28;20568;-69
2022/09/10 00:26:20;;;;;;;2.33;1.77;;;13.80;99.90;;;;;;5009612;28;20518;-70
2022/09/10 00:28:49;;;;;;;2.00;1.60;;;13.90;99.90;;;;;;5006415;28;21001;-69
2022/09/10 00:31:16;;;;;;;4.63;2.00;;;13.90;99.90;;;;;;5006364;28;20474;-69
2022/09/10 00:33:43;;;;;;;3.03;1.77;;;13.90;99.90;;;;;;5007277;28;20454;-69
2022/09/10 00:36:15;;;;;;;2.03;1.50;;;13.90;99.90;;;;;;5008263;28;20540;-70
2022/09/10 00:38:42;;;;;;;2.50;2.00;;;13.90;99.90;;;;;;5008653;28;20493;-71
2022/09/10 00:41:09;;;;;;;1.83;1.57;;;13.90;99.90;;;;;;5004155;28;21085;-70
2022/09/10 00:43:52;;;;;;;2.07;1.60;;;13.90;99.90;;;;;;5003184;28;20471;-69
2022/09/10 00:46:28;;;;;;;3.20;1.90;;;13.90;99.90;;;;;;5008318;28;20517;-70
2022/09/10 00:48:58;;;;;;;4.13;2.00;;;14.00;99.90;;;;;;5009420;28;20880;-70
2022/09/10 00:51:29;;;;;;;3.37;2.00;;;14.00;99.90;;;;;;5009938;28;20557;-70
2022/09/10 00:53:58;;;;;;;1.93;1.70;;;14.00;99.90;;;;;;5010732;28;20466;-70
2022/09/10 00:56:25;;;;;;;4.00;2.33;;;14.10;99.90;;;;;;5012040;28;20521;-71
2022/09/10 00:58:54;;;;;;;2.60;1.77;;;14.10;99.90;;;;;;5008256;28;20543;-71
2022/09/10 01:01:22;;;;;;;3.20;2.33;;;14.10;99.90;;;;;;5007219;28;20949;-71
2022/09/10 01:03:49;;;;;;;3.47;1.90;;;14.10;99.90;;;;;;5010882;28;20454;-71
2022/09/10 01:06:17;;;;;;;4.57;1.90;;;14.20;99.90;;;;;;5013280;28;20486;-71
2022/09/10 01:08:44;;;;;;;3.10;2.00;;;14.20;99.90;;;;;;5009926;28;20536;-71
2022/09/10 01:11:26;;;;;;;2.70;1.50;;;14.10;99.90;;;;;;5007687;28;20517;-71
2022/09/10 01:14:18;;;;;;;3.70;1.97;;;14.10;99.90;;;;;;5008852;28;20532;-69
2022/09/10 01:16:56;;;;;;;3.13;2.07;;;14.10;99.90;;;;;;5008604;28;20489;-71
2022/09/10 01:19:47;;;;;;;4.50;2.37;;;14.10;99.90;;;;;;5011326;28;20521;-71
2022/09/10 01:22:26;;;;;;;3.53;2.27;;;14.10;99.90;;;;;;5008102;28;20554;-71
2022/09/10 01:24:55;;;;;;;3.00;2.03;;;14.20;99.90;;;;;;5008690;28;20459;-71
2022/09/10 01:27:37;;;;;;;2.10;1.33;;;14.20;99.90;;;;;;5009145;28;20484;-71
2022/09/10 01:30:13;;;;;;;1.33;1.20;;;14.20;99.90;;;;;;5010170;28;20449;-71
2022/09/10 01:32:51;;;;;;;2.63;1.27;;;14.10;99.90;;;;;;5008911;28;20472;-69
2022/09/10 01:35:22;;;;;;;2.80;1.30;;;14.10;99.90;;;;;;5004882;28;20972;-69
2022/09/10 01:37:53;;;;;;;2.07;1.30;;;14.00;99.90;;;;;;5010267;28;20478;-69
2022/09/10 01:40:27;;;;;;;2.13;1.30;;;14.00;99.90;;;;;;5009248;28;20458;-70
2022/09/10 01:43:00;;;;;;;1.97;1.47;;;14.00;99.90;;;;;;5005831;28;20550;-70
2022/09/10 01:45:28;;;;;;;2.23;1.70;;;14.00;99.90;;;;;;5010176;28;20469;-70
2022/09/10 01:48:17;;;;;;;3.33;1.57;;;13.90;99.90;;;;;;5009887;28;20572;-71
2022/09/10 01:50:52;;;;;;;1.50;1.30;;;13.90;99.90;;;;;;4999325;28;20454;-71
2022/09/10 01:53:46;;;;;;;2.50;1.17;;;13.90;99.90;;;;;;5009115;28;20832;-70
2022/09/10 01:56:34;;;;;;;2.57;1.37;;;13.90;99.90;;;;;;5006743;28;20482;-70
2022/09/10 01:59:08;;;;;;;1.60;1.20;;;13.80;99.90;;;;;;5008395;28;20814;-70
2022/09/10 02:01:41;;;;;;;3.17;1.40;;;13.80;99.90;;;;;;5006731;28;20546;-70
2022/09/10 02:04:13;;;;;;;1.60;1.10;;;13.80;99.90;;;;;;5008493;28;20542;-70
2022/09/10 02:06:44;;;;;;;1.77;1.20;;;13.80;99.90;;;;;;5010141;28;20529;-70
2022/09/10 02:09:14;;;;;;;3.70;1.40;;;13.80;99.90;;;;;;5010380;28;20494;-70
2022/09/10 02:11:46;;;;;;;2.80;1.80;;;13.90;99.90;;;;;;5007942;28;20877;-70
2022/09/10 02:14:15;;;;;;;1.60;1.30;;;13.80;99.90;;;;;;5010732;28;20551;-70
2022/09/10 02:16:45;;;;;;;3.50;1.83;;;13.90;99.90;;;;;;5008795;28;20480;-70
2022/09/10 02:19:13;;;;;;;1.80;1.50;;;13.90;99.90;;;;;;5009330;28;20541;-70
2022/09/10 02:21:40;;;;;;;3.10;1.50;;;13.90;99.90;;;;;;5005871;28;20552;-70
2022/09/10 02:24:10;;;;;;;2.80;1.60;;;13.90;99.90;;;;;;5010800;28;20513;-70
2022/09/10 02:26:39;;;;;;;3.50;1.53;;;13.90;99.90;;;;;;5009670;28;20473;-70
2022/09/10 02:29:07;;;;;;;2.47;1.50;;;13.90;99.90;;;;;;5009612;28;20578;-70
2022/09/10 02:31:36;;;;;;;2.75;1.70;;;14.00;99.90;;;;;;5007283;28;20453;-71
2022/09/10 02:34:03;;;;;;;2.43;1.63;;;14.00;99.90;;;;;;5008597;28;20331;-70
2022/09/10 02:36:31;;;;;;;2.40;1.70;;;14.00;99.90;;;;;;5009922;28;20482;-70
2022/09/10 02:38:59;;;;;;;3.17;1.47;;;14.00;99.90;;;;;;5008684;28;20563;-70
2022/09/10 02:41:26;;;;;;;2.97;1.70;;;14.00;99.90;;;;;;5007208;28;20491;-70
2022/09/10 02:43:54;;;;;;;2.63;1.50;;;14.00;99.90;;;;;;5004529;28;20851;-70
2022/09/10 02:46:21;;;;;;;2.47;1.80;;;14.00;99.90;;;;;;5005628;28;20486;-71
2022/09/10 02:48:50;;;;;;;5.20;1.30;;;14.00;99.90;;;;;;5008472;28;20552;-71
2022/09/10 02:51:17;;;;;;;1.70;1.47;;;14.00;99.90;;;;;;5006667;28;20485;-70
2022/09/10 02:53:44;;;;;;;2.10;1.57;;;13.90;99.90;;;;;;5006042;28;20470;-70
2022/09/10 02:56:12;;;;;;;1.93;1.43;;;13.90;99.90;;;;;;5008553;28;21064;-70
2022/09/10 02:58:39;;;;;;;3.10;1.30;;;13.90;99.90;;;;;;5010268;28;20536;-71
2022/09/10 03:01:08;;;;;;;2.20;1.30;;;13.90;99.90;;;;;;5004784;28;20497;-71
2022/09/10 03:03:35;;;;;;;1.90;1.50;;;13.90;99.90;;;;;;5005742;28;21056;-71
2022/09/10 03:06:04;;;;;;;3.43;1.90;;;13.90;99.90;;;;;;5010222;28;20477;-71
2022/09/10 03:08:31;;;;;;;1.57;1.40;;;13.90;99.90;;;;;;5008227;28;20488;-71
2022/09/10 03:10:59;;;;;;;1.67;1.57;;;13.90;99.90;;;;;;5007915;28;20545;-71
2022/09/10 03:13:27;;;;;;;2.07;1.50;;;13.90;99.90;;;;;;5000121;28;20462;-71
2022/09/10 03:15:54;;;;;;;1.90;1.53;;;13.90;99.90;;;;;;5008091;28;20478;-70
2022/09/10 03:18:22;;;;;;;2.40;1.63;;;13.90;99.90;;;;;;5007552;28;20462;-70
2022/09/10 03:20:49;;;;;;;1.70;1.60;;;13.90;99.90;;;;;;5005277;28;20904;-71
2022/09/10 03:23:18;;;;;;;3.57;1.50;;;13.80;99.90;;;;;;5007698;28;20464;-70
2022/09/10 03:25:46;;;;;;;3.43;2.00;;;13.80;99.90;;;;;;5011055;28;20482;-70
2022/09/10 03:28:13;;;;;;;2.10;1.90;;;13.80;99.90;;;;;;5009709;28;20454;-71
2022/09/10 03:30:41;;;;;;;1.87;1.67;;;13.80;99.90;;;;;;5006571;28;20533;-71
2022/09/10 03:33:10;;;;;;;1.73;1.63;;;13.80;99.90;;;;;;5006079;28;20503;-70
2022/09/10 03:35:37;;;;;;;3.07;1.90;;;13.80;99.90;;;;;;5007828;28;20474;-71
2022/09/10 03:38:04;;;;;;;2.30;1.77;;;13.90;99.90;;;;;;5009597;28;20472;-70
2022/09/10 03:40:33;;;;;;;2.83;2.03;;;13.90;99.90;;;;;;5008512;28;20471;-70
2022/09/10 03:43:01;;;;;;;2.70;1.80;;;13.90;99.90;;;;;;5005594;28;20454;-70
2022/09/10 03:45:29;;;;;;;11.10;2.40;;;13.90;99.90;;;;;;5009345;28;20473;-70
2022/09/10 03:47:56;;;;;;;2.00;1.80;;;13.90;99.90;;;;;;5009223;28;20460;-71
2022/09/10 03:50:23;;;;;;;3.87;1.90;;;14.00;99.90;;;;;;5008236;28;20540;-71
2022/09/10 03:52:50;;;;;;;3.23;1.80;;;14.00;99.90;;;;;;5006634;28;20470;-70
2022/09/10 03:55:18;;;;;;;4.47;2.20;;;14.00;99.90;;;;;;5008698;28;20541;-71
2022/09/10 03:57:46;;;;;;;2.50;2.03;;;13.90;99.90;;;;;;5004952;28;20941;-70
2022/09/10 04:00:14;;;;;;;4.43;2.30;;;14.00;99.90;;;;;;5006654;28;20500;-70
2022/09/10 04:02:42;;;;;;;3.13;2.30;;;14.00;99.90;;;;;;5005446;28;21004;-71
2022/09/10 04:05:10;;;;;;;2.38;1.85;;;14.00;99.90;;;;;;5004248;28;20550;-70
2022/09/10 04:07:37;;;;;;;2.60;1.97;;;13.80;99.90;;;;;;4988272;28;20199;-71
2022/09/10 04:10:05;;;;;;;2.03;1.93;;;14.00;99.90;;;;;;5002207;28;20490;-71
2022/09/10 04:12:32;;;;;;;3.50;2.10;;;14.00;99.90;;;;;;5002546;28;21160;-71
2022/09/10 04:15:03;;;;;;;4.20;2.37;;;14.00;99.90;;;;;;5003566;28;20475;-71
2022/09/10 04:17:30;;;;;;;4.33;2.30;;;14.20;99.90;;;;;;5008517;28;20516;-74
2022/09/10 04:19:57;;;;;;;2.50;1.97;;;14.00;99.90;;;;;;5001046;28;20458;-71
2022/09/10 04:22:24;;;;;;;3.10;2.50;;;14.00;99.90;;;;;;5010606;28;20585;-70
2022/09/10 04:24:51;;;;;;;3.70;2.20;;;14.20;99.90;;;;;;5013681;28;20553;-73
2022/09/10 04:27:18;;;;;;;3.90;2.27;;;14.10;99.90;;;;;;5012084;28;20553;-70
2022/09/10 04:29:45;;;;;;;2.70;2.23;;;14.10;99.90;;;;;;5009645;28;20537;-70
2022/09/10 04:32:14;;;;;;;3.30;2.03;;;14.10;99.90;;;;;;5011025;28;20461;-71
2022/09/10 04:34:41;;;;;;;3.27;2.37;;;14.10;99.90;;;;;;5012574;28;20488;-70
2022/09/10 04:37:08;;;;;;;3.33;2.10;;;14.10;99.90;;;;;;5012975;28;20469;-73
2022/09/10 04:39:35;;;;;;;3.00;2.40;;;14.00;99.90;;;;;;5006295;28;20465;-73
2022/09/10 04:42:03;;;;;;;2.77;2.10;;;14.00;99.90;;;;;;5003537;28;20941;-76
2022/09/10 04:44:31;;;;;;;2.67;1.97;;;14.00;99.90;;;;;;5006255;28;21114;-70
2022/09/10 04:46:58;;;;;;;2.20;2.00;;;14.00;99.90;;;;;;5008622;28;20509;-70
2022/09/10 04:49:27;;;;;;;2.00;1.80;;;14.10;99.90;;;;;;5008458;28;20492;-70
2022/09/10 04:51:54;;;;;;;2.10;1.87;;;14.10;99.90;;;;;;5005777;28;21467;-71
2022/09/10 04:54:21;;;;;;;1.93;1.70;;;14.10;99.90;;;;;;5009269;28;20464;-71
2022/09/10 04:56:48;;;;;;;2.20;1.80;;;14.10;99.90;;;;;;5012813;28;20522;-71
2022/09/10 04:59:15;;;;;;;1.70;1.60;;;14.20;99.90;;;;;;5009530;28;20455;-71
2022/09/10 05:01:42;;;;;;;2.47;1.90;;;14.20;99.90;;;;;;5012451;28;20549;-71
2022/09/10 05:04:09;;;;;;;3.07;2.17;;;14.20;99.90;;;;;;5010624;28;20925;-71
2022/09/10 05:06:37;;;;;;;1.67;1.50;;;14.20;99.90;;;;;;5012043;28;21065;-71
2022/09/10 05:09:04;;;;;;;1.70;1.60;;;14.20;99.90;;;;;;5012328;28;20517;-71
2022/09/10 05:11:31;;;;;;;1.70;1.60;;;14.20;99.90;;;;;;5010249;28;20546;-71
2022/09/10 05:13:58;;;;;;;2.20;1.33;;;14.30;99.90;;;;;;5012204;28;20460;-71
2022/09/10 05:16:26;;;;;;;1.80;1.60;;;14.30;99.90;;;;;;5010972;28;20557;-71
2022/09/10 05:18:53;;;;;;;2.30;1.43;;;14.40;99.90;;;;;;5013042;28;20459;-71
2022/09/10 05:21:20;;;;;;;2.37;1.70;;;14.40;99.90;;;;;;5011050;28;20534;-71
2022/09/10 05:23:48;;;;;;;2.03;1.50;;;14.40;99.90;;;;;;5011848;28;20464;-70
2022/09/10 05:26:15;;;;;;;2.50;1.67;;;14.50;99.90;;;;;;5010988;28;20559;-71
2022/09/10 05:28:42;;;;;;;2.43;1.80;;;14.50;99.90;;;;;;5010823;28;20868;-70
2022/09/10 05:31:09;;;;;;;1.63;1.53;;;14.50;99.90;;;;;;5011481;28;20961;-70
2022/09/10 05:33:39;;;;;;;3.07;1.67;;;14.50;99.90;;;;;;5009925;28;20506;-71
2022/09/10 05:36:08;;;;;;;2.60;1.40;;;14.60;99.90;;;;;;5009982;28;20562;-71
2022/09/10 05:38:35;;;;;;;2.17;1.20;;;14.50;99.90;;;;;;5008219;28;20462;-71
2022/09/10 05:41:05;;;;;;;2.30;2.10;;;14.60;99.90;;;;;;5013023;28;21035;-71
2022/09/10 05:43:33;;;;;;;1.73;1.47;;;14.60;99.90;;;;;;5002815;28;20458;-71
2022/09/10 05:46:00;;;;;;;1.77;1.40;;;14.60;99.90;;;;;;5007352;28;20495;-71
2022/09/10 05:48:26;;;;;;;3.47;1.30;;;14.60;99.90;;;;;;5010487;28;20547;-71
2022/09/10 05:50:53;;;;;;;3.27;1.50;;;14.60;99.90;;;;;;5008462;28;20487;-71
2022/09/10 05:53:21;;;;;;;1.97;1.50;;;14.60;99.90;;;;;;5008643;28;20551;-71
2022/09/10 05:55:48;;;;;;;1.57;1.00;;;14.60;99.90;;;;;;5007042;28;20506;-71
2022/09/10 05:58:16;;;;;;;1.83;1.30;;;14.60;99.90;;;;;;5004409;28;20464;-73
2022/09/10 06:00:43;;;;;;;2.40;1.57;;;14.60;99.90;;;;;;5006778;28;20482;-71
2022/09/10 06:03:11;;;;;;;2.53;1.50;;;14.60;99.90;;;;;;5011180;28;20474;-72
2022/09/10 06:05:38;;;;;;;2.50;1.30;;;14.60;99.90;;;;;;5006842;28;20885;-72
2022/09/10 06:08:05;;;;;;;2.00;1.60;;;14.60;99.90;;;;;;5011143;28;20458;-71
2022/09/10 06:10:33;;;;;;;1.53;1.27;;;14.60;99.90;;;;;;5007297;28;20499;-72
2022/09/10 06:13:00;;;;;;;2.80;1.60;;;14.70;99.90;;;;;;5007805;28;20474;-72
2022/09/10 06:15:31;;;;;;;2.83;1.80;;;14.70;99.90;;;;;;5012774;28;20871;-72
2022/09/10 06:18:00;;;;;;;1.60;1.50;;;14.70;99.90;;;;;;5008231;28;20466;-71
2022/09/10 06:20:28;;;;;;;2.97;1.53;;;14.70;99.90;;;;;;5006560;28;20856;-72
2022/09/10 06:22:55;;;;;;;2.60;1.63;;;14.70;99.90;;;;;;5010345;28;20456;-71
2022/09/10 06:25:22;;;;;;;2.00;1.37;;;14.70;99.90;;;;;;5009502;28;20484;-72
2022/09/10 06:27:49;;;;;;;4.17;1.30;;;14.80;99.90;;;;;;5009416;28;20543;-72
2022/09/10 06:30:16;;;;;;;2.07;1.43;;;14.90;99.90;;;;;;5010568;28;20567;-72
2022/09/10 06:32:45;;;;;;;2.60;1.20;;;14.80;99.90;;;;;;5006265;28;20472;-72
2022/09/10 06:35:12;;;;;;;1.87;1.40;;;14.90;99.90;;;;;;5011601;28;20480;-72
2022/09/10 06:37:39;;;;;;;2.17;1.20;;;14.90;99.90;;;;;;5009517;28;21057;-71
2022/09/10 06:40:07;;;;;;;2.80;1.47;;;14.90;99.90;;;;;;5009889;28;20919;-71
2022/09/10 06:42:34;;;;;;;2.00;1.00;;;15.00;99.90;;;;;;5007605;28;20468;-69
2022/09/10 06:45:01;;;;;;;1.80;1.60;;;15.10;99.90;;;;;;5011291;28;20487;-68
2022/09/10 06:47:28;;;;;;;3.27;1.60;;;15.10;99.90;;;;;;5000411;28;20445;-65
2022/09/10 06:49:57;;;;;;;2.23;1.20;;;15.20;99.90;;;;;;4996508;28;20485;-65
2022/09/10 06:52:24;;;;;;;3.00;1.20;;;15.30;99.90;;;;;;5008451;28;20457;-67
2022/09/10 06:54:51;;;;;;;4.00;1.53;;;15.40;99.90;;;;;;5006849;28;20535;-67
2022/09/10 06:57:19;;;;;;;2.27;1.00;;;15.40;99.90;;;;;;5004897;28;20465;-66
2022/09/10 06:59:46;;;;;;;3.63;1.20;;;15.50;99.90;;;;;;5005325;28;20510;-72
2022/09/10 07:02:14;;;;;;;4.87;1.20;;;15.50;99.90;;;;;;5006408;28;20481;-72
2022/09/10 07:04:41;;;;;;;2.23;1.33;;;15.60;99.90;;;;;;5003429;28;20488;-72
2022/09/10 07:07:10;;;;;;;1.20;1.10;;;15.60;99.90;;;;;;5007883;28;20476;-72
2022/09/10 07:09:36;;;;;;;5.37;1.07;;;15.60;99.90;;;;;;5005918;28;20552;-71
2022/09/10 07:12:04;;;;;;;1.57;1.00;;;15.70;99.90;;;;;;5006895;28;20973;-71
2022/09/10 07:14:32;;;;;;;2.30;1.03;;;15.70;99.90;;;;;;5006340;28;20963;-71
2022/09/10 07:16:59;;;;;;;1.30;0.80;;;15.70;99.90;;;;;;5003324;28;20965;-71
2022/09/10 07:19:26;;;;;;;1.30;0.80;;;15.80;99.90;;;;;;5007578;28;20952;-71
2022/09/10 07:21:53;;;;;;;0.97;0.77;;;15.80;99.90;;;;;;5007489;28;20449;-71
2022/09/10 07:24:21;;;;;;;1.50;0.80;;;15.90;99.90;;;;;;5008840;28;20973;-72
2022/09/10 07:26:48;;;;;;;1.60;0.83;;;15.90;99.90;;;;;;5009326;28;20527;-71
2022/09/10 07:29:15;;;;;;;1.20;1.03;;;16.00;99.90;;;;;;5006263;28;20483;-72
2022/09/10 07:31:42;;;;;;;2.20;1.00;;;16.00;99.90;;;;;;5007824;28;20489;-71
2022/09/10 07:34:10;;;;;;;0.80;0.70;;;16.10;99.90;;;;;;5009622;28;20457;-71
2022/09/10 07:36:37;;;;;;;1.07;0.97;;;16.20;99.90;;;;;;5007333;28;20449;-71
2022/09/10 07:39:04;;;;;;;1.73;0.97;;;16.20;99.90;;;;;;4998838;28;20523;-72
2022/09/10 07:41:34;;;;;;;1.10;0.80;;;16.20;99.90;;;;;;5009146;28;20596;-71
2022/09/10 07:44:02;;;;;;;2.10;0.80;;;16.20;99.90;;;;;;5008275;28;20499;-71
2022/09/10 07:46:29;;;;;;;0.90;0.80;;;16.20;99.90;;;;;;5003483;28;20449;-71
2022/09/10 07:48:58;;;;;;;1.83;0.80;;;16.10;99.90;;;;;;5009210;28;20464;-71
2022/09/10 07:51:27;;;;;;;1.47;1.00;;;16.10;99.90;;;;;;5007344;28;20492;-72
2022/09/10 07:53:55;;;;;;;1.50;0.87;;;16.10;99.90;;;;;;5009336;28;20452;-71
2022/09/10 07:56:23;;;;;;;4.47;1.10;;;16.10;99.90;;;;;;5009076;28;20552;-72
2022/09/10 07:58:52;;;;;;;0.80;0.80;;;16.10;99.90;;;;;;5013746;28;20480;-72
2022/09/10 08:01:20;;;;;;;1.67;0.90;;;16.10;99.90;;;;;;5012611;28;20542;-71
2022/09/10 08:03:47;;;;;;;2.33;1.00;;;16.10;99.90;;;;;;5008479;28;20464;-71
2022/09/10 08:06:15;;;;;;;2.23;0.90;;;16.10;99.90;;;;;;5012103;28;20884;-71
2022/09/10 08:08:43;;;;;;;1.87;0.90;;;16.20;99.90;;;;;;5010210;28;20495;-71
2022/09/10 08:11:12;;;;;;;1.20;0.80;;;16.20;99.90;;;;;;5013851;28;20553;-71
2022/09/10 08:13:40;;;;;;;1.30;0.90;;;16.30;99.90;;;;;;5009244;28;20457;-71
2022/09/10 08:16:11;;;;;;;2.23;0.93;;;16.30;99.90;;;;;;5012657;28;21009;-71
2022/09/10 08:18:39;;;;;;;2.13;1.07;;;16.40;99.90;;;;;;5010120;28;20908;-71
2022/09/10 08:21:07;;;;;;;1.43;0.80;;;16.50;99.90;;;;;;5010756;28;20464;-70
2022/09/10 08:23:35;;;;;;;2.40;1.20;;;16.50;99.90;;;;;;5012188;28;20456;-71
2022/09/10 08:26:03;;;;;;;1.57;0.90;;;16.70;99.90;;;;;;5007795;28;20482;-71
2022/09/10 08:28:30;;;;;;;1.60;0.90;;;17.00;99.90;;;;;;5012984;28;20464;-72
2022/09/10 08:30:59;;;;;;;1.10;0.80;;;17.30;99.90;;;;;;5014506;28;20855;-71
2022/09/10 08:33:27;;;;;;;1.83;1.10;;;17.70;99.90;;;;;;5010294;28;20495;-71
2022/09/10 08:35:56;;;;;;;2.30;1.00;;;17.90;99.90;;;;;;4998458;28;20473;-72
2022/09/10 08:38:24;;;;;;;1.73;1.07;;;18.10;99.90;;;;;;5011971;28;20457;-71
2022/09/10 08:40:53;;;;;;;1.40;0.80;;;18.20;99.90;;;;;;5009075;28;21059;-71
2022/09/10 08:43:27;;;;;;;1.63;1.00;;;18.20;99.90;;;;;;5012776;28;20813;-71
2022/09/10 08:45:56;;;;;;;3.50;1.20;;;18.10;99.90;;;;;;4997600;28;20485;-71
2022/09/10 08:48:25;;;;;;;1.73;1.00;;;18.10;99.90;;;;;;5015129;28;20449;-71
2022/09/10 08:50:58;;;;;;;1.57;0.90;;;18.00;99.90;;;;;;5013278;28;20476;-71
2022/09/10 08:53:31;;;;;;;2.00;0.90;;;17.90;99.90;;;;;;5013256;28;20543;-72
2022/09/10 08:56:04;;;;;;;1.37;0.90;;;18.00;99.90;;;;;;5013331;28;20464;-72
2022/09/10 08:58:41;;;;;;;3.80;1.30;;;17.90;99.90;;;;;;5014581;28;20480;-70
2022/09/10 09:01:14;;;;;;;1.63;1.17;;;17.90;99.90;;;;;;5009611;28;20515;-71
2022/09/10 09:03:44;;;;;;;2.00;1.20;;;17.90;99.90;;;;;;5005471;28;20513;-71
2022/09/10 09:06:24;;;;;;;1.23;0.90;;;17.80;99.90;;;;;;5011158;28;20456;-71
2022/09/10 09:08:53;;;;;;;2.20;1.07;;;17.80;99.90;;;;;;5013003;28;20468;-71
2022/09/10 09:11:29;;;;;;;3.07;1.40;;;17.80;99.90;;;;;;5012005;28;20495;-71
2022/09/10 09:14:10;;;;;;;1.23;0.80;;;17.80;99.90;;;;;;5013217;28;20476;-71
2022/09/10 09:16:58;;;;;;;3.43;1.50;;;17.90;99.90;;;;;;5008049;28;20449;-71
2022/09/10 09:19:32;;;;;;;1.63;0.90;;;18.00;99.90;;;;;;5014895;28;20448;-71
2022/09/10 09:22:06;;;;;;;1.70;1.00;;;18.20;99.90;;;;;;5013207;28;20492;-71
2022/09/10 09:24:46;;;;;;;2.17;1.03;;;18.50;99.90;;;;;;5012377;28;20494;-71
2022/09/10 09:27:17;;;;;;;4.53;1.40;;;18.80;99.90;;;;;;5013079;28;20532;-71
2022/09/10 09:29:49;;;;;;;2.63;1.07;;;18.80;99.90;;;;;;4997083;28;20449;-71
2022/09/10 09:32:19;;;;;;;4.13;1.30;;;18.90;99.90;;;;;;5007293;28;20477;-71
2022/09/10 09:34:50;;;;;;;4.53;1.30;;;18.90;99.90;;;;;;5012560;28;20461;-71
2022/09/10 09:37:22;;;;;;;2.33;1.30;;;18.90;99.90;;;;;;5012452;28;20449;-71
2022/09/10 09:39:58;;;;;;;2.80;1.10;;;18.90;99.90;;;;;;5008660;28;20453;-71
2022/09/10 09:42:32;;;;;;;2.77;1.00;;;18.90;99.90;;;;;;5008998;28;20464;-79
2022/09/10 09:45:06;;;;;;;2.30;1.00;;;18.80;99.90;;;;;;5011224;28;20878;-70
2022/09/10 09:47:33;;;;;;;4.00;1.33;;;18.80;99.90;;;;;;5012710;28;20544;-70
2022/09/10 09:50:00;;;;;;;2.70;1.37;;;18.50;99.90;;;;;;5006147;28;20457;-70
2022/09/10 09:52:30;;;;;;;5.30;1.30;;;18.20;99.90;;;;;;5005216;28;20485;-71
2022/09/10 09:55:01;;;;;;;6.53;1.57;;;18.00;99.90;;;;;;5010409;28;20477;-71
2022/09/10 09:57:28;;;;;;;1.70;1.27;;;18.00;99.90;;;;;;5008615;28;20453;-71
2022/09/10 09:59:56;;;;;;;2.23;1.20;;;17.80;99.90;;;;;;5010269;28;20550;-71
2022/09/10 10:02:25;;;;;;;3.63;1.47;;;17.70;99.90;;;;;;5010358;28;20804;-70
2022/09/10 10:05:04;;;;;;;5.17;2.00;;;17.60;99.90;;;;;;5010949;28;20480;-72
2022/09/10 10:07:35;;;;;;;4.70;1.30;;;17.60;99.90;;;;;;5009498;28;20460;-71
2022/09/10 10:10:04;;;;;;;4.20;1.00;;;17.60;99.90;;;;;;5007226;28;20471;-71
2022/09/10 10:12:32;;;;;;;3.27;1.37;;;17.60;99.90;;;;;;5003890;28;20520;-72
2022/09/10 10:15:01;;;;;;;6.37;1.80;;;17.50;99.90;;;;;;5006485;28;20500;-72
2022/09/10 10:17:34;;;;;;;1.93;1.33;;;17.50;99.90;;;;;;5006724;28;20990;-72
2022/09/10 10:20:10;;;;;;;3.77;1.50;;;17.30;99.90;;;;;;4999963;28;20449;-72
2022/09/10 10:22:40;;;;;;;4.13;1.73;;;17.10;99.90;;;;;;5010362;28;20468;-71
2022/09/10 10:25:37;;;;;;;3.03;1.40;;;16.90;99.90;;;;;;5008452;28;20593;-71
2022/09/10 10:28:14;;;;;;;2.20;1.37;;;16.90;99.90;;;;;;5011299;28;20492;-71
2022/09/10 10:30:41;;;;;;;2.23;1.70;;;17.00;99.90;;;;;;5006250;28;20489;-72
2022/09/10 10:33:17;;;;;;;3.80;1.53;;;17.10;99.90;;;;;;5008917;28;20546;-70
2022/09/10 10:35:50;;;;;;;2.90;1.10;;;17.30;99.90;;;;;;5011288;28;20465;-72
2022/09/10 10:38:28;;;;;;;4.03;1.20;;;17.30;99.90;;;;;;5008597;28;20459;-71
2022/09/10 10:41:25;;;;;;;1.90;1.00;;;17.20;99.90;;;;;;5008622;28;20460;-72
2022/09/10 10:44:04;;;;;;;3.37;1.20;;;17.10;99.90;;;;;;5010060;28;20521;-72
2022/09/10 10:46:41;;;;;;;2.63;1.00;;;17.00;99.90;;;;;;5007786;28;20828;-70
2022/09/10 10:49:21;;;;;;;2.57;1.17;;;17.10;99.90;;;;;;5010754;28;20489;-71
2022/09/10 10:51:56;;;;;;;1.70;1.00;;;17.10;99.90;;;;;;5005977;28;20485;-72
2022/09/10 10:54:42;;;;;;;2.57;1.07;;;17.10;99.90;;;;;;5010316;28;20836;-72
2022/09/10 10:57:21;;;;;;;1.57;1.07;;;17.20;99.90;;;;;;5009776;28;20459;-71
2022/09/10 10:59:55;;;;;;;2.30;0.93;;;17.40;99.90;;;;;;5008410;28;20472;-71
2022/09/10 11:02:35;;;;;;;1.83;0.90;;;17.70;99.90;;;;;;5001569;28;20965;-71
2022/09/10 11:05:29;;;;;;;1.40;1.00;;;17.80;99.90;;;;;;5007795;28;20658;-71
2022/09/10 11:07:59;;;;;;;2.27;1.60;;;18.10;99.90;;;;;;5005340;28;20453;-70
2022/09/10 11:10:33;;;;;;;2.00;1.20;;;18.40;99.90;;;;;;5011446;28;20465;-70
2022/09/10 11:13:08;;;;;;;1.30;1.20;;;18.70;99.90;;;;;;5006312;28;20512;-70
2022/09/10 11:15:41;;;;;;;3.70;1.77;;;19.00;99.90;;;;;;5009316;28;20820;-70
2022/09/10 11:18:15;;;;;;;1.00;0.70;;;19.10;99.90;;;;;;5009115;28;21019;-70
2022/09/10 11:20:45;;;;;;;1.60;1.20;;;19.20;99.90;;;;;;5010995;28;20456;-71
2022/09/10 11:23:21;;;;;;;2.07;1.33;;;19.40;99.90;;;;;;5009347;28;20471;-70
2022/09/10 11:25:56;;;;;;;1.57;0.90;;;19.80;99.90;;;;;;5006830;28;20465;-70
2022/09/10 11:28:28;;;;;;;2.37;1.00;;;20.30;99.90;;;;;;5009687;28;20452;-71
2022/09/10 11:31:04;;;;;;;1.70;1.13;;;20.80;99.90;;;;;;5007508;28;20789;-71
2022/09/10 11:33:38;;;;;;;1.63;1.03;;;21.30;99.90;;;;;;5005544;28;20464;-71
2022/09/10 11:36:11;;;;;;;2.00;1.47;;;21.40;99.90;;;;;;5003144;28;22373;-71
2022/09/10 11:38:47;;;;;;;2.33;1.00;;;21.30;99.90;;;;;;5003811;28;20467;-70
2022/09/10 11:41:20;;;;;;;2.27;0.90;;;21.00;99.90;;;;;;5003940;28;20468;-70
2022/09/10 11:43:51;;;;;;;1.93;1.13;;;20.80;99.90;;;;;;4995419;28;21060;-70
2022/09/10 11:46:24;;;;;;;3.00;1.30;;;20.60;99.90;;;;;;5005201;28;20498;-70
2022/09/10 11:49:00;;;;;;;2.37;1.90;;;20.40;99.90;;;;;;5003684;28;20453;-69
2022/09/10 11:51:32;;;;;;;1.83;1.33;;;20.20;99.90;;;;;;5002403;28;20487;-68
2022/09/10 11:54:02;;;;;;;2.93;1.20;;;20.10;99.90;;;;;;5003197;28;20484;-69
2022/09/10 11:56:48;;;;;;;2.80;1.30;;;20.00;99.90;;;;;;5000872;28;20987;-70
2022/09/10 11:59:52;;;;;;;1.47;0.93;;;20.00;99.90;;;;;;5005851;28;20468;-70
2022/09/10 12:02:44;;;;;;;1.67;0.80;;;19.80;99.90;;;;;;4993603;28;20471;-70
2022/09/10 12:05:22;;;;;;;1.90;1.00;;;19.50;99.90;;;;;;5001257;28;21035;-70
2022/09/10 12:08:00;;;;;;;1.60;1.10;;;19.60;99.90;;;;;;5005426;28;20456;-70
2022/09/10 12:10:34;;;;;;;2.43;1.10;;;20.10;99.90;;;;;;5006737;28;20451;-71
2022/09/10 12:13:08;;;;;;;2.97;1.10;;;20.70;99.90;;;;;;5006206;28;20604;-70
2022/09/10 12:15:36;;;;;;;2.03;0.90;;;21.10;99.90;;;;;;5007059;28;21036;-70
2022/09/10 12:18:13;;;;;;;1.40;0.90;;;21.00;99.90;;;;;;5006796;28;20760;-70
2022/09/10 12:20:47;;;;;;;2.70;0.73;;;20.80;99.90;;;;;;5008269;28;20460;-70
2022/09/10 12:23:18;;;;;;;2.37;1.20;;;20.60;99.90;;;;;;5006356;28;20557;-70
2022/09/10 12:25:45;;;;;;;1.37;0.80;;;20.60;99.90;;;;;;5008274;28;21027;-71
2022/09/10 12:28:45;;;;;;;2.20;1.00;;;20.70;99.90;;;;;;5007310;28;21130;-69
2022/09/10 12:31:15;;;;;;;1.53;1.00;;;20.80;99.90;;;;;;5006748;28;20525;-70
2022/09/10 12:34:14;;;;;;;3.40;0.93;;;20.40;99.90;;;;;;5004506;28;20469;-70
2022/09/10 12:37:20;;;;;;;2.83;1.00;;;20.20;99.90;;;;;;5003681;28;20552;-70
2022/09/10 12:39:47;;;;;;;3.10;1.10;;;20.00;99.90;;;;;;5009248;28;20826;-70
2022/09/10 12:42:33;;;;;;;2.87;1.07;;;19.90;99.90;;;;;;5003995;28;20548;-70
2022/09/10 12:45:00;;;;;;;2.27;1.13;;;19.90;99.90;;;;;;5012199;28;20458;-70
2022/09/10 12:47:40;;;;;;;1.80;0.90;;;20.00;99.90;;;;;;5012416;28;20493;-70
2022/09/10 12:50:32;;;;;;;2.70;0.90;;;20.20;99.90;;;;;;5005215;28;20459;-71
2022/09/10 12:53:43;;;;;;;1.73;0.97;;;20.80;99.90;;;;;;4998074;28;20860;-71
2022/09/10 12:56:55;;;;;;;2.83;1.33;;;21.90;99.90;;;;;;4982474;28;20485;-70
2022/09/10 12:59:56;;;;;;;1.10;0.90;;;22.30;99.90;;;;;;4943513;28;20990;-71
2022/09/10 13:02:30;;;;;;;1.57;0.93;;;22.10;99.90;;;;;;5009095;28;20460;-70
2022/09/10 13:05:02;;;;;;;2.10;1.00;;;22.10;99.90;;;;;;5010173;28;20491;-70
2022/09/10 13:07:40;;;;;;;1.70;0.80;;;22.00;99.90;;;;;;5005855;28;21041;-71
2022/09/10 13:10:19;;;;;;;3.73;1.00;;;21.70;99.90;;;;;;5004908;28;20459;-71